Time;durP1;ratioP1;P1;durP2;ratioP2;P2;SDS_P1;SDS_P2;PMS_P1;PMS_P2;Temp;Humidity;BMP_temperature;BMP_pressure;BME280_temperature;BME280_humidity;BME280_pressure;Samples;Min_cycle;Max_cycle;Signal;HPM_P1;HPM_P2
2022/10/20 00:02:20;;;;;;;14.90;13.50;;;11.90;99.90;;;;;;6117988;23;20653;-76
2022/10/20 00:04:48;;;;;;;14.00;12.82;;;11.80;99.90;;;;;;6110592;23;20268;-76
2022/10/20 00:07:16;;;;;;;14.18;12.90;;;11.80;99.90;;;;;;6104401;23;20271;-76
2022/10/20 00:09:43;;;;;;;13.52;12.30;;;11.80;99.90;;;;;;6117342;23;20271;-76
2022/10/20 00:12:10;;;;;;;13.45;12.07;;;11.70;99.90;;;;;;6074238;23;20212;-76
2022/10/20 00:14:38;;;;;;;15.07;13.45;;;11.70;99.90;;;;;;6092379;23;20218;-76
2022/10/20 00:17:05;;;;;;;14.63;13.23;;;11.70;99.90;;;;;;6111918;23;20274;-76
2022/10/20 00:19:33;;;;;;;15.38;13.77;;;11.60;99.90;;;;;;6102430;23;20275;-76
2022/10/20 00:22:01;;;;;;;14.13;12.73;;;11.60;99.90;;;;;;6102244;23;20518;-76
2022/10/20 00:24:28;;;;;;;14.90;13.40;;;11.50;99.90;;;;;;6098902;23;20589;-76
2022/10/20 00:26:55;;;;;;;14.65;13.27;;;11.50;99.90;;;;;;6117704;23;20934;-76
2022/10/20 00:29:22;;;;;;;13.82;12.43;;;11.40;99.90;;;;;;6117615;23;20604;-76
2022/10/20 00:31:49;;;;;;;15.07;13.68;;;11.40;99.90;;;;;;6117666;23;20572;-75
2022/10/20 00:34:16;;;;;;;15.55;14.05;;;11.40;99.90;;;;;;6108643;23;20519;-76
2022/10/20 00:36:44;;;;;;;16.20;14.52;;;11.40;99.90;;;;;;6116542;23;20698;-76
2022/10/20 00:39:12;;;;;;;14.35;13.05;;;11.40;99.90;;;;;;6117460;23;20194;-76
2022/10/20 00:41:40;;;;;;;15.70;14.20;;;11.40;99.90;;;;;;6120273;23;20215;-76
2022/10/20 00:44:40;;;;;;;14.77;13.45;;;11.40;99.90;;;;;;6133409;23;20187;-76
2022/10/20 00:47:10;;;;;;;15.05;13.65;;;11.30;99.90;;;;;;6116016;23;20191;-76
2022/10/20 00:49:37;;;;;;;15.15;13.55;;;11.30;99.90;;;;;;6118929;23;20697;-76
2022/10/20 00:52:05;;;;;;;15.13;13.48;;;11.30;99.90;;;;;;6110094;23;20620;-76
2022/10/20 00:54:34;;;;;;;15.65;14.02;;;11.30;99.90;;;;;;6118331;23;20191;-76
2022/10/20 00:57:01;;;;;;;14.30;12.90;;;11.30;99.90;;;;;;6117615;23;20199;-76
2022/10/20 00:59:33;;;;;;;14.82;13.30;;;11.30;99.90;;;;;;6116959;23;20274;-76
2022/10/20 01:02:02;;;;;;;14.82;13.25;;;11.30;99.90;;;;;;6115267;23;20223;-76
2022/10/20 01:04:31;;;;;;;14.27;12.88;;;11.30;99.90;;;;;;6118347;23;20270;-76
2022/10/20 01:06:59;;;;;;;15.02;13.45;;;11.30;99.90;;;;;;6101573;23;20253;-76
2022/10/20 01:09:27;;;;;;;15.13;13.45;;;11.20;99.90;;;;;;6093054;23;20200;-76
2022/10/20 01:12:02;;;;;;;14.95;13.55;;;11.30;99.90;;;;;;6100323;23;20641;-76
2022/10/20 01:14:39;;;;;;;16.83;15.05;;;11.20;99.90;;;;;;6119439;23;20203;-76
2022/10/20 01:17:18;;;;;;;15.05;13.57;;;11.20;99.90;;;;;;6119587;23;20199;-76
2022/10/20 01:20:20;;;;;;;14.52;13.13;;;11.20;99.90;;;;;;6118172;23;20195;-76
2022/10/20 01:23:22;;;;;;;15.10;13.60;;;11.20;99.90;;;;;;6116483;23;20656;-76
2022/10/20 01:26:03;;;;;;;15.82;14.27;;;11.10;99.90;;;;;;6117812;23;20604;-76
2022/10/20 01:28:37;;;;;;;16.02;14.18;;;11.10;99.90;;;;;;6114006;23;20356;-76
2022/10/20 01:31:16;;;;;;;15.82;14.18;;;11.10;99.90;;;;;;6090885;23;20213;-76
2022/10/20 01:33:50;;;;;;;15.02;13.60;;;11.10;99.90;;;;;;6128633;23;20260;-76
2022/10/20 01:36:27;;;;;;;15.15;13.65;;;11.10;99.90;;;;;;6116351;23;20821;-76
2022/10/20 01:39:01;;;;;;;14.93;13.43;;;11.10;99.90;;;;;;6110595;23;20190;-76
2022/10/20 01:41:33;;;;;;;14.93;13.32;;;11.10;99.90;;;;;;6108836;23;20191;-76
2022/10/20 01:44:04;;;;;;;14.23;12.82;;;11.10;99.90;;;;;;6118855;23;20178;-76
2022/10/20 01:46:33;;;;;;;14.73;13.23;;;11.20;99.90;;;;;;6100290;23;20641;-76
2022/10/20 01:49:03;;;;;;;14.70;13.27;;;11.30;99.90;;;;;;6119550;23;20192;-76
2022/10/20 01:51:30;;;;;;;15.40;13.85;;;11.20;99.90;;;;;;6123788;23;20268;-76
2022/10/20 01:53:57;;;;;;;14.40;12.88;;;11.20;99.90;;;;;;6117752;23;20271;-76
2022/10/20 01:56:29;;;;;;;16.85;13.50;;;11.20;99.90;;;;;;6115542;23;20195;-76
2022/10/20 01:59:12;;;;;;;15.48;12.98;;;11.20;99.90;;;;;;6112496;23;20288;-76
2022/10/20 02:01:57;;;;;;;16.35;14.18;;;11.30;99.90;;;;;;6117008;23;20210;-76
2022/10/20 02:04:32;;;;;;;14.77;12.52;;;11.30;99.90;;;;;;6117192;23;20187;-76
2022/10/20 02:07:09;;;;;;;14.32;12.90;;;11.30;99.90;;;;;;6112642;23;20589;-76
2022/10/20 02:09:40;;;;;;;13.57;12.18;;;11.30;99.90;;;;;;6118343;23;20203;-76
2022/10/20 02:12:13;;;;;;;14.23;12.80;;;11.30;99.90;;;;;;6119215;23;20234;-76
2022/10/20 02:14:43;;;;;;;15.48;13.13;;;11.30;99.90;;;;;;6112666;23;20679;-76
2022/10/20 02:17:15;;;;;;;14.25;12.75;;;11.30;99.90;;;;;;6118791;23;20514;-76
2022/10/20 02:19:44;;;;;;;13.40;12.05;;;11.20;99.90;;;;;;6110924;23;20270;-76
2022/10/20 02:22:15;;;;;;;14.25;12.85;;;11.20;99.90;;;;;;6117280;23;20184;-76
2022/10/20 02:24:43;;;;;;;13.90;12.50;;;11.30;99.90;;;;;;6117791;23;20263;-76
2022/10/20 02:27:14;;;;;;;16.38;13.15;;;11.20;99.90;;;;;;6118349;23;20590;-76
2022/10/20 02:29:47;;;;;;;14.80;13.35;;;11.20;99.90;;;;;;6112823;23;20201;-76
2022/10/20 02:32:16;;;;;;;13.27;11.93;;;11.20;99.90;;;;;;6117742;23;20226;-76
2022/10/20 02:34:43;;;;;;;12.90;11.70;;;11.20;99.90;;;;;;6119254;23;20191;-76
2022/10/20 02:37:11;;;;;;;15.65;13.40;;;11.20;99.90;;;;;;6112447;23;20231;-75
2022/10/20 02:39:38;;;;;;;14.70;13.00;;;11.20;99.90;;;;;;6112919;23;20218;-76
2022/10/20 02:42:05;;;;;;;13.23;11.93;;;11.20;99.90;;;;;;6118701;23;20217;-76
2022/10/20 02:44:32;;;;;;;13.93;12.40;;;11.10;99.90;;;;;;6119215;23;20219;-76
2022/10/20 02:47:01;;;;;;;16.15;14.00;;;11.10;99.90;;;;;;6119449;23;20659;-76
2022/10/20 02:49:28;;;;;;;15.70;14.00;;;11.10;99.90;;;;;;6120821;23;20328;-76
2022/10/20 02:51:56;;;;;;;14.15;12.65;;;11.10;99.90;;;;;;6117558;23;20269;-76
2022/10/20 02:54:23;;;;;;;13.52;11.88;;;11.10;99.90;;;;;;6112930;23;20573;-76
2022/10/20 02:56:51;;;;;;;15.30;13.80;;;11.10;99.90;;;;;;6117090;23;20660;-76
2022/10/20 02:59:17;;;;;;;16.02;14.10;;;11.10;99.90;;;;;;6120745;23;20222;-76
2022/10/20 03:01:44;;;;;;;14.00;12.55;;;11.10;99.90;;;;;;6117347;23;20180;-76
2022/10/20 03:04:13;;;;;;;15.18;13.68;;;11.10;99.90;;;;;;6116677;23;20190;-76
2022/10/20 03:06:41;;;;;;;14.65;13.25;;;11.10;99.90;;;;;;6121695;23;20198;-76
2022/10/20 03:09:08;;;;;;;15.63;14.13;;;11.10;99.90;;;;;;6115654;23;20270;-76
2022/10/20 03:11:36;;;;;;;14.25;12.85;;;11.10;99.90;;;;;;6098112;23;20709;-76
2022/10/20 03:14:03;;;;;;;14.45;12.88;;;11.10;99.90;;;;;;6109528;23;20211;-76
2022/10/20 03:16:30;;;;;;;14.82;12.80;;;11.10;99.90;;;;;;6114671;23;20248;-76
2022/10/20 03:18:57;;;;;;;15.65;13.55;;;11.10;99.90;;;;;;6120114;23;20171;-76
2022/10/20 03:21:26;;;;;;;14.05;12.63;;;11.10;99.90;;;;;;6117404;23;20633;-76
2022/10/20 03:23:54;;;;;;;15.15;13.65;;;11.10;99.90;;;;;;6119327;23;20226;-76
2022/10/20 03:26:21;;;;;;;14.95;13.45;;;11.10;99.90;;;;;;6119399;23;20704;-76
2022/10/20 03:28:48;;;;;;;17.00;14.35;;;11.10;99.90;;;;;;6112967;23;20250;-76
2022/10/20 03:31:15;;;;;;;16.58;14.85;;;11.10;99.90;;;;;;6111192;23;20226;-76
2022/10/20 03:33:43;;;;;;;16.35;14.73;;;11.20;99.90;;;;;;6127359;23;20217;-76
2022/10/20 03:36:10;;;;;;;17.25;14.77;;;11.20;99.90;;;;;;6114300;23;20275;-76
2022/10/20 03:38:41;;;;;;;14.25;12.82;;;11.20;99.90;;;;;;6100712;23;20718;-76
2022/10/20 03:41:08;;;;;;;16.90;15.30;;;11.20;99.90;;;;;;6111036;23;20187;-76
2022/10/20 03:43:35;;;;;;;16.48;14.80;;;11.20;99.90;;;;;;6114460;23;20229;-75
2022/10/20 03:46:03;;;;;;;16.13;14.52;;;11.20;99.90;;;;;;6112203;23;20187;-74
2022/10/20 03:48:31;;;;;;;16.23;14.63;;;11.20;99.90;;;;;;6115122;23;20482;-75
2022/10/20 03:51:00;;;;;;;15.27;13.70;;;11.20;99.90;;;;;;6117949;23;20183;-78
2022/10/20 03:53:27;;;;;;;16.95;13.85;;;11.20;99.90;;;;;;6117895;23;20226;-75
2022/10/20 03:55:56;;;;;;;14.23;12.90;;;11.20;99.90;;;;;;6118185;23;20199;-75
2022/10/20 03:58:23;;;;;;;15.88;14.27;;;11.20;99.90;;;;;;6118983;23;20187;-75
2022/10/20 04:00:50;;;;;;;14.93;13.40;;;11.20;99.90;;;;;;6127658;23;20723;-76
2022/10/20 04:03:17;;;;;;;16.80;13.57;;;11.20;99.90;;;;;;6117486;23;20194;-76
2022/10/20 04:05:44;;;;;;;16.65;14.95;;;11.20;99.90;;;;;;6113319;23;20218;-76
2022/10/20 04:08:11;;;;;;;16.17;14.48;;;11.30;99.90;;;;;;6137521;23;20211;-76
2022/10/20 04:10:39;;;;;;;14.98;13.55;;;11.20;99.90;;;;;;6116904;23;20211;-76
2022/10/20 04:13:07;;;;;;;15.90;14.32;;;11.30;99.90;;;;;;6119188;23;20199;-75
2022/10/20 04:15:34;;;;;;;16.00;14.43;;;11.20;99.90;;;;;;6107549;23;20210;-75
2022/10/20 04:18:02;;;;;;;16.25;14.55;;;11.20;99.90;;;;;;6115945;23;20298;-75
2022/10/20 04:20:29;;;;;;;15.10;13.50;;;11.20;99.90;;;;;;6115622;23;20187;-73
2022/10/20 04:22:56;;;;;;;15.85;14.07;;;11.20;99.90;;;;;;6119449;23;20211;-73
2022/10/20 04:25:23;;;;;;;15.98;13.88;;;11.40;99.90;;;;;;6111573;23;20664;-73
2022/10/20 04:27:50;;;;;;;16.77;15.18;;;11.20;99.90;;;;;;6119478;23;20218;-75
2022/10/20 04:30:19;;;;;;;16.75;14.98;;;11.20;99.90;;;;;;6108530;23;20263;-75
2022/10/20 04:32:46;;;;;;;19.67;16.42;;;11.20;99.90;;;;;;6110671;23;20207;-75
2022/10/20 04:35:13;;;;;;;21.27;15.73;;;11.20;99.90;;;;;;6105691;23;20230;-75
2022/10/20 04:37:40;;;;;;;17.88;15.10;;;11.20;99.90;;;;;;6117682;23;20602;-75
2022/10/20 04:40:09;;;;;;;18.90;16.10;;;11.30;99.90;;;;;;6121880;23;20199;-75
2022/10/20 04:42:36;;;;;;;21.50;15.55;;;11.20;99.90;;;;;;6116819;23;20358;-76
2022/10/20 04:45:03;;;;;;;19.13;16.08;;;11.30;99.90;;;;;;6113752;23;20240;-75
2022/10/20 04:47:36;;;;;;;18.83;16.73;;;11.20;99.90;;;;;;6116152;23;20199;-76
2022/10/20 04:50:04;;;;;;;18.88;15.85;;;11.30;99.90;;;;;;6119060;23;20258;-76
2022/10/20 04:52:31;;;;;;;19.45;17.35;;;11.30;99.90;;;;;;6119139;23;20183;-76
2022/10/20 04:54:58;;;;;;;21.52;15.82;;;11.30;99.90;;;;;;6120338;23;20226;-77
2022/10/20 04:57:25;;;;;;;18.92;15.98;;;11.20;99.90;;;;;;6118026;23;20373;-76
2022/10/20 04:59:52;;;;;;;20.80;17.10;;;11.30;99.90;;;;;;6120577;23;20199;-77
2022/10/20 05:02:19;;;;;;;20.63;17.02;;;11.30;99.90;;;;;;6117382;23;20228;-76
2022/10/20 05:04:48;;;;;;;20.40;17.08;;;11.30;99.90;;;;;;6119335;23;20267;-77
2022/10/20 05:07:15;;;;;;;23.60;17.17;;;11.30;99.90;;;;;;6118674;23;20219;-76
2022/10/20 05:09:42;;;;;;;18.92;16.60;;;11.30;99.90;;;;;;6120256;23;20262;-76
2022/10/20 05:12:09;;;;;;;19.67;17.05;;;11.30;99.90;;;;;;6115133;23;20194;-77
2022/10/20 05:14:36;;;;;;;19.67;16.42;;;11.30;99.90;;;;;;6120817;23;20646;-76
2022/10/20 05:17:04;;;;;;;22.17;16.02;;;11.30;99.90;;;;;;6110466;23;20274;-76
2022/10/20 05:19:31;;;;;;;21.20;17.25;;;11.30;99.90;;;;;;6120320;23;20206;-77
2022/10/20 05:21:59;;;;;;;20.63;15.70;;;11.30;99.90;;;;;;6119339;23;20592;-76
2022/10/20 05:24:26;;;;;;;20.00;17.77;;;11.30;99.90;;;;;;6119962;23;20659;-76
2022/10/20 05:26:54;;;;;;;20.13;16.60;;;11.30;99.90;;;;;;6116487;23;20489;-77
2022/10/20 05:29:21;;;;;;;19.40;16.92;;;11.40;99.90;;;;;;6119641;23;20729;-77
2022/10/20 05:31:49;;;;;;;17.77;15.77;;;11.40;99.90;;;;;;6132271;23;20226;-77
2022/10/20 05:34:16;;;;;;;18.08;15.80;;;11.30;99.90;;;;;;6120800;23;20282;-77
2022/10/20 05:36:43;;;;;;;21.10;15.43;;;11.30;99.90;;;;;;6114165;23;20222;-77
2022/10/20 05:39:12;;;;;;;17.40;15.45;;;11.30;99.90;;;;;;6117704;23;20198;-77
2022/10/20 05:41:39;;;;;;;20.23;17.08;;;11.30;99.90;;;;;;6119309;23;20192;-77
2022/10/20 05:44:08;;;;;;;18.17;16.25;;;11.30;99.90;;;;;;6119427;23;20188;-77
2022/10/20 05:46:40;;;;;;;21.33;17.27;;;11.30;99.90;;;;;;6118596;23;20194;-77
2022/10/20 05:49:12;;;;;;;20.00;16.30;;;11.30;99.90;;;;;;6119710;23;20187;-76
2022/10/20 05:51:39;;;;;;;20.67;17.00;;;11.20;99.90;;;;;;6120146;23;20183;-77
2022/10/20 05:54:06;;;;;;;19.48;16.08;;;11.30;99.90;;;;;;6114174;23;20204;-77
2022/10/20 05:56:35;;;;;;;19.83;16.70;;;11.30;99.90;;;;;;6092079;23;20645;-76
2022/10/20 05:59:02;;;;;;;17.45;15.30;;;11.30;99.90;;;;;;6117653;23;20599;-77
2022/10/20 06:01:38;;;;;;;17.85;15.23;;;11.30;99.90;;;;;;6120525;23;20190;-77
2022/10/20 06:04:07;;;;;;;20.83;17.48;;;11.30;99.90;;;;;;6118305;23;20224;-76
2022/10/20 06:06:35;;;;;;;17.42;15.63;;;11.50;99.90;;;;;;6118704;23;20266;-77
2022/10/20 06:09:06;;;;;;;19.45;16.63;;;11.30;99.90;;;;;;6119337;23;20195;-77
2022/10/20 06:11:35;;;;;;;16.73;15.13;;;11.30;99.90;;;;;;6120374;23;20514;-76
2022/10/20 06:14:02;;;;;;;17.17;14.50;;;11.30;99.90;;;;;;6114258;23;20270;-77
2022/10/20 06:16:31;;;;;;;18.60;15.75;;;11.30;99.90;;;;;;6104283;23;20194;-77
2022/10/20 06:18:59;;;;;;;16.70;14.52;;;11.40;99.90;;;;;;6116031;23;20210;-77
2022/10/20 06:21:28;;;;;;;17.13;15.40;;;11.40;99.90;;;;;;6104799;23;20266;-76
2022/10/20 06:23:55;;;;;;;17.45;14.80;;;11.40;99.90;;;;;;6108669;23;20270;-76
2022/10/20 06:26:25;;;;;;;16.98;15.32;;;11.40;99.90;;;;;;6119549;23;20702;-77
2022/10/20 06:28:56;;;;;;;17.92;15.38;;;11.40;99.90;;;;;;6105724;23;20192;-76
2022/10/20 06:31:25;;;;;;;17.38;15.60;;;11.50;99.90;;;;;;6120280;23;20179;-77
2022/10/20 06:33:52;;;;;;;15.88;14.25;;;11.40;99.90;;;;;;6118234;23;20613;-78
2022/10/20 06:36:20;;;;;;;14.68;13.20;;;11.50;99.90;;;;;;6121269;23;20214;-77
2022/10/20 06:38:52;;;;;;;15.88;13.50;;;11.50;99.90;;;;;;6113556;23;20270;-76
2022/10/20 06:41:19;;;;;;;14.25;12.82;;;11.50;99.90;;;;;;6142334;23;20187;-77
2022/10/20 06:43:46;;;;;;;13.80;12.35;;;11.60;99.90;;;;;;6118260;23;20270;-77
2022/10/20 06:46:16;;;;;;;14.80;13.27;;;11.60;99.90;;;;;;6120174;23;20222;-77
2022/10/20 06:48:44;;;;;;;14.85;13.38;;;11.60;99.90;;;;;;6113486;23;20215;-76
2022/10/20 06:51:13;;;;;;;14.55;13.20;;;11.60;99.90;;;;;;6119415;23;20277;-76
2022/10/20 06:53:42;;;;;;;14.20;12.82;;;11.60;99.90;;;;;;6114969;23;20213;-77
2022/10/20 06:56:12;;;;;;;14.90;13.35;;;11.70;99.90;;;;;;6119716;23;20206;-77
2022/10/20 06:58:42;;;;;;;14.43;12.98;;;11.80;99.90;;;;;;6100224;23;20194;-77
2022/10/20 07:01:13;;;;;;;12.63;11.32;;;11.90;99.90;;;;;;6125660;23;20198;-77
2022/10/20 07:03:43;;;;;;;13.40;11.98;;;11.90;99.90;;;;;;6135610;23;20217;-76
2022/10/20 07:06:14;;;;;;;14.02;12.55;;;12.00;99.90;;;;;;6127447;23;20199;-77
2022/10/20 07:08:42;;;;;;;11.27;10.15;;;12.10;99.90;;;;;;6120332;23;20270;-76
2022/10/20 07:11:11;;;;;;;12.68;10.75;;;12.30;99.90;;;;;;6115001;23;20194;-77
2022/10/20 07:13:39;;;;;;;11.23;10.25;;;12.40;99.90;;;;;;6124492;23;20715;-77
2022/10/20 07:16:10;;;;;;;12.63;11.10;;;12.60;99.90;;;;;;6120065;23;20219;-76
2022/10/20 07:18:38;;;;;;;11.48;10.35;;;12.70;99.90;;;;;;6112785;23;20199;-77
2022/10/20 07:21:08;;;;;;;11.07;9.85;;;12.60;99.90;;;;;;6113152;23;20238;-77
2022/10/20 07:23:36;;;;;;;11.20;10.23;;;12.70;99.90;;;;;;6113896;23;20258;-77
2022/10/20 07:26:06;;;;;;;9.98;9.15;;;12.80;99.90;;;;;;6113721;23;20184;-77
2022/10/20 07:28:34;;;;;;;10.50;9.60;;;13.00;99.90;;;;;;6117350;23;20299;-76
2022/10/20 07:31:03;;;;;;;9.40;8.50;;;13.20;99.90;;;;;;6120593;23;20427;-76
2022/10/20 07:33:30;;;;;;;9.77;8.77;;;13.40;99.90;;;;;;6116701;23;20427;-76
2022/10/20 07:35:57;;;;;;;9.10;8.30;;;13.70;99.90;;;;;;6112815;23;20512;-77
2022/10/20 07:38:26;;;;;;;9.10;8.20;;;13.90;99.90;;;;;;6118384;23;20435;-76
2022/10/20 07:40:53;;;;;;;8.80;8.00;;;13.90;99.90;;;;;;6120245;23;20412;-76
2022/10/20 07:43:21;;;;;;;8.60;7.80;;;13.90;99.90;;;;;;6118205;23;20510;-76
2022/10/20 07:45:48;;;;;;;9.00;8.20;;;13.90;99.90;;;;;;6118567;23;20431;-77
2022/10/20 07:48:15;;;;;;;8.53;7.80;;;14.20;99.90;;;;;;6118216;23;20453;-76
2022/10/20 07:50:42;;;;;;;9.23;7.93;;;14.40;99.90;;;;;;6119619;23;20427;-77
2022/10/20 07:53:09;;;;;;;7.50;6.80;;;14.60;99.90;;;;;;6113653;23;20495;-76
2022/10/20 07:55:37;;;;;;;7.20;6.60;;;14.60;99.90;;;;;;6120237;23;20453;-75
2022/10/20 07:58:04;;;;;;;7.13;6.43;;;14.80;99.90;;;;;;6120045;23;20505;-76
2022/10/20 08:00:31;;;;;;;7.63;6.93;;;15.00;99.90;;;;;;6116784;23;20470;-76
2022/10/20 08:02:59;;;;;;;8.00;7.30;;;15.10;99.90;;;;;;6117974;23;20512;-77
2022/10/20 08:05:26;;;;;;;7.33;6.60;;;14.90;99.90;;;;;;6115231;23;20456;-77
2022/10/20 08:07:53;;;;;;;7.20;6.50;;;14.70;99.90;;;;;;6120678;23;20520;-77
2022/10/20 08:10:20;;;;;;;7.90;7.20;;;14.60;99.90;;;;;;6134838;23;20466;-76
2022/10/20 08:12:49;;;;;;;8.10;7.30;;;14.70;99.90;;;;;;6121068;23;20434;-76
2022/10/20 08:15:16;;;;;;;6.27;5.77;;;14.80;99.90;;;;;;6114803;23;20468;-76
2022/10/20 08:17:43;;;;;;;7.40;6.80;;;15.10;99.90;;;;;;6124192;23;20444;-76
2022/10/20 08:20:11;;;;;;;7.07;5.73;;;15.20;99.90;;;;;;6124980;23;20479;-76
2022/10/20 08:22:38;;;;;;;7.33;6.73;;;15.40;99.90;;;;;;6139534;23;20856;-76
2022/10/20 08:25:06;;;;;;;6.70;6.10;;;15.60;99.90;;;;;;6120212;23;20417;-76
2022/10/20 08:27:33;;;;;;;7.10;6.50;;;15.80;99.90;;;;;;6119790;23;20932;-76
2022/10/20 08:30:02;;;;;;;7.50;6.33;;;15.90;99.90;;;;;;6100344;23;20527;-76
2022/10/20 08:32:29;;;;;;;5.93;5.43;;;15.90;99.90;;;;;;6106652;23;20915;-76
2022/10/20 08:34:56;;;;;;;5.13;4.73;;;16.00;99.90;;;;;;6120133;23;20484;-76
2022/10/20 08:37:23;;;;;;;6.50;5.90;;;16.10;99.90;;;;;;6109022;23;20438;-75
2022/10/20 08:39:51;;;;;;;7.37;5.40;;;16.40;99.90;;;;;;6130773;23;20524;-76
2022/10/20 08:42:18;;;;;;;5.83;5.33;;;16.50;99.90;;;;;;6102011;23;20430;-76
2022/10/20 08:44:47;;;;;;;5.67;5.27;;;16.50;99.90;;;;;;6120567;23;20422;-76
2022/10/20 08:47:25;;;;;;;5.50;5.10;;;16.60;99.90;;;;;;6118802;23;20430;-76
2022/10/20 08:49:53;;;;;;;5.90;5.40;;;16.70;99.90;;;;;;6115971;23;20521;-76
2022/10/20 08:52:23;;;;;;;5.57;5.07;;;16.60;99.90;;;;;;6107344;23;21137;-76
2022/10/20 08:54:54;;;;;;;5.80;5.40;;;16.50;99.90;;;;;;6108294;23;20783;-76
2022/10/20 08:57:24;;;;;;;5.23;4.80;;;16.50;99.90;;;;;;6114720;23;20429;-77
2022/10/20 08:59:53;;;;;;;5.13;4.73;;;16.50;99.90;;;;;;6115556;23;20468;-76
2022/10/20 09:02:23;;;;;;;5.57;5.07;;;16.60;99.90;;;;;;6117550;23;20465;-76
2022/10/20 09:04:53;;;;;;;5.33;4.93;;;16.90;99.90;;;;;;6113416;23;20517;-79
2022/10/20 09:07:28;;;;;;;4.90;4.47;;;17.20;99.90;;;;;;6126861;23;20481;-77
2022/10/20 09:10:24;;;;;;;5.37;4.90;;;17.30;99.90;;;;;;6109080;23;20460;-76
2022/10/20 09:12:52;;;;;;;4.47;4.17;;;17.80;99.90;;;;;;6120744;23;20475;-77
2022/10/20 09:15:20;;;;;;;5.37;4.87;;;18.10;99.90;;;;;;6118736;23;20449;-77
2022/10/20 09:17:51;;;;;;;4.73;4.43;;;18.40;99.90;;;;;;6130873;23;20463;-77
2022/10/20 09:20:23;;;;;;;4.50;4.20;;;18.70;99.90;;;;;;6135559;23;20429;-77
2022/10/20 09:22:50;;;;;;;4.77;4.47;;;18.80;99.90;;;;;;6121653;23;20507;-76
2022/10/20 09:25:22;;;;;;;4.30;4.00;;;19.10;99.90;;;;;;6113300;23;21024;-77
2022/10/20 09:27:50;;;;;;;4.30;3.90;;;19.20;99.90;;;;;;6141491;23;20468;-77
2022/10/20 09:30:20;;;;;;;4.87;4.40;;;19.50;99.90;;;;;;6115243;23;20989;-77
2022/10/20 09:32:49;;;;;;;4.23;3.93;;;19.80;99.90;;;;;;6128283;23;20449;-77
2022/10/20 09:35:24;;;;;;;4.40;4.10;;;19.90;99.90;;;;;;6115010;23;20552;-77
2022/10/20 09:38:03;;;;;;;4.80;4.50;;;20.20;99.90;;;;;;6135978;23;20441;-77
2022/10/20 09:40:31;;;;;;;4.60;4.20;;;20.10;99.90;;;;;;6113850;23;20465;-77
2022/10/20 09:43:02;;;;;;;5.00;4.60;;;20.00;99.90;;;;;;6120455;23;20433;-77
2022/10/20 09:45:32;;;;;;;4.77;4.40;;;19.90;99.90;;;;;;6119870;23;20427;-77
2022/10/20 09:48:06;;;;;;;4.13;3.83;;;19.90;99.90;;;;;;6131315;23;20455;-77
2022/10/20 09:50:36;;;;;;;4.83;4.43;;;20.00;99.90;;;;;;6118766;23;20517;-77
2022/10/20 09:53:07;;;;;;;4.93;4.60;;;20.10;99.90;;;;;;6136176;23;20436;-77
2022/10/20 09:55:36;;;;;;;4.40;4.10;;;20.00;99.90;;;;;;6118373;23;20457;-77
2022/10/20 09:58:05;;;;;;;5.60;5.10;;;20.00;99.90;;;;;;6118384;23;20457;-77
2022/10/20 10:00:35;;;;;;;5.83;5.33;;;19.80;99.90;;;;;;6131796;23;20479;-77
2022/10/20 10:03:25;;;;;;;5.60;5.10;;;19.50;99.90;;;;;;6114095;23;21137;-76
2022/10/20 10:05:54;;;;;;;5.80;5.40;;;19.00;99.90;;;;;;6128143;23;20504;-76
2022/10/20 10:08:23;;;;;;;5.13;4.73;;;18.60;99.90;;;;;;6125578;23;20926;-77
2022/10/20 10:11:02;;;;;;;4.80;4.50;;;18.30;99.90;;;;;;6111017;23;20419;-77
2022/10/20 10:13:35;;;;;;;6.87;6.27;;;18.10;99.90;;;;;;6119118;23;20436;-77
2022/10/20 10:16:06;;;;;;;6.07;5.50;;;17.90;99.90;;;;;;6125625;23;20514;-76
2022/10/20 10:18:37;;;;;;;6.40;5.70;;;17.80;99.90;;;;;;6121590;23;20456;-77
2022/10/20 10:21:06;;;;;;;6.73;6.23;;;17.70;99.90;;;;;;6116399;23;20464;-76
2022/10/20 10:23:39;;;;;;;6.80;6.20;;;17.70;99.90;;;;;;6115528;23;20929;-76
2022/10/20 10:26:40;;;;;;;6.33;5.70;;;17.70;99.90;;;;;;6117129;23;20532;-76
2022/10/20 10:29:17;;;;;;;5.30;4.80;;;17.70;99.90;;;;;;6115020;23;20500;-77
2022/10/20 10:31:51;;;;;;;5.37;4.93;;;17.50;99.90;;;;;;6121230;23;20460;-76
2022/10/20 10:34:40;;;;;;;5.13;4.73;;;17.60;99.90;;;;;;6118570;23;20886;-77
2022/10/20 10:37:12;;;;;;;5.00;4.60;;;17.70;99.90;;;;;;6116981;23;20429;-76
2022/10/20 10:39:39;;;;;;;5.43;5.03;;;17.80;99.90;;;;;;6117189;23;20426;-77
2022/10/20 10:42:29;;;;;;;5.60;5.10;;;17.90;99.90;;;;;;6118860;23;20433;-77
2022/10/20 10:45:04;;;;;;;5.23;4.83;;;17.90;99.90;;;;;;6079620;23;20430;-77
2022/10/20 10:47:59;;;;;;;6.57;5.97;;;17.80;99.90;;;;;;6142619;23;20440;-77
2022/10/20 10:50:34;;;;;;;5.97;5.03;;;17.60;99.90;;;;;;6116537;23;20441;-77
2022/10/20 10:53:14;;;;;;;5.80;5.10;;;17.60;99.90;;;;;;6113994;23;20508;-80
2022/10/20 10:55:51;;;;;;;6.10;5.60;;;17.70;99.90;;;;;;6109239;23;20453;-77
2022/10/20 10:58:33;;;;;;;6.20;5.60;;;17.80;99.90;;;;;;6113620;23;20437;-77
2022/10/20 11:01:09;;;;;;;5.57;5.07;;;17.80;99.90;;;;;;6127306;23;20433;-77
2022/10/20 11:04:08;;;;;;;6.70;5.70;;;17.70;99.90;;;;;;6118109;23;20448;-77
2022/10/20 11:06:43;;;;;;;5.43;4.93;;;17.70;99.90;;;;;;6096420;23;20859;-77
2022/10/20 11:09:26;;;;;;;5.70;5.20;;;17.60;99.90;;;;;;6119410;23;20840;-77
2022/10/20 11:12:24;;;;;;;5.80;5.30;;;17.20;99.90;;;;;;6116885;23;20456;-76
2022/10/20 11:15:06;;;;;;;6.10;5.60;;;17.00;99.90;;;;;;6116318;23;20793;-77
2022/10/20 11:17:44;;;;;;;6.00;5.50;;;16.90;99.90;;;;;;6116755;23;20449;-77
2022/10/20 11:20:24;;;;;;;5.23;4.73;;;16.90;99.90;;;;;;6105925;23;20465;-77
2022/10/20 11:23:19;;;;;;;6.23;5.60;;;16.90;99.90;;;;;;6117346;23;20464;-77
2022/10/20 11:25:50;;;;;;;6.30;5.70;;;17.00;99.90;;;;;;6119983;23;20421;-77
2022/10/20 11:28:29;;;;;;;6.90;5.30;;;17.00;99.90;;;;;;6120753;23;20451;-77
2022/10/20 11:30:59;;;;;;;5.70;5.20;;;17.10;99.90;;;;;;6126139;23;20516;-77
2022/10/20 11:33:33;;;;;;;5.43;4.93;;;17.10;99.90;;;;;;6127690;23;20451;-77
2022/10/20 11:36:04;;;;;;;5.70;5.20;;;17.30;99.90;;;;;;6119780;23;20442;-77
2022/10/20 11:38:46;;;;;;;5.20;4.80;;;17.30;99.90;;;;;;6103220;23;20969;-77
2022/10/20 11:41:20;;;;;;;5.23;4.83;;;17.20;99.90;;;;;;6119701;23;20502;-77
2022/10/20 11:43:54;;;;;;;5.20;4.60;;;17.40;99.90;;;;;;6107063;23;20528;-77
2022/10/20 11:46:26;;;;;;;5.50;5.00;;;17.50;99.90;;;;;;6098821;23;20457;-76
2022/10/20 11:48:55;;;;;;;5.63;5.13;;;17.50;99.90;;;;;;6117194;23;20425;-77
2022/10/20 11:51:55;;;;;;;6.10;5.60;;;17.50;99.90;;;;;;6109007;23;20918;-77
2022/10/20 11:54:39;;;;;;;4.83;4.43;;;17.50;99.90;;;;;;6126932;23;20440;-77
2022/10/20 11:57:17;;;;;;;5.60;5.10;;;17.50;99.90;;;;;;6141016;23;20492;-77
2022/10/20 12:00:00;;;;;;;5.60;5.10;;;17.50;99.90;;;;;;6110222;23;20440;-77
2022/10/20 12:03:05;;;;;;;6.03;5.03;;;17.40;99.90;;;;;;6105298;23;20436;-77
2022/10/20 12:06:00;;;;;;;5.40;5.00;;;17.30;99.90;;;;;;6033017;23;20814;-77
2022/10/20 12:08:45;;;;;;;5.03;4.50;;;17.30;99.90;;;;;;6100492;23;20429;-77
2022/10/20 12:11:21;;;;;;;5.40;5.00;;;17.30;99.90;;;;;;6116816;23;20444;-77
2022/10/20 12:13:58;;;;;;;5.23;4.57;;;17.30;99.90;;;;;;6116127;23;20437;-77
2022/10/20 12:17:11;;;;;;;4.80;4.37;;;17.30;99.90;;;;;;6113937;23;20461;-78
2022/10/20 12:19:38;;;;;;;4.20;3.90;;;17.30;99.90;;;;;;6053868;23;20433;-77
2022/10/20 12:22:26;;;;;;;5.23;4.50;;;17.30;99.90;;;;;;6125114;23;20456;-77
2022/10/20 12:25:17;;;;;;;4.40;4.07;;;17.30;99.90;;;;;;6119657;23;20438;-77
2022/10/20 12:27:46;;;;;;;4.60;4.10;;;17.20;99.90;;;;;;6118433;23;20438;-77
2022/10/20 12:30:42;;;;;;;4.73;4.40;;;17.20;99.90;;;;;;6118040;23;20449;-77
2022/10/20 12:33:17;;;;;;;5.17;4.50;;;17.00;99.90;;;;;;6117532;23;20856;-76
2022/10/20 12:35:59;;;;;;;5.20;4.77;;;17.00;99.90;;;;;;6125273;23;21033;-76
2022/10/20 12:38:28;;;;;;;6.13;5.03;;;17.00;99.90;;;;;;6115120;23;20531;-77
2022/10/20 12:40:59;;;;;;;4.90;4.33;;;17.00;99.90;;;;;;6130753;23;20513;-77
2022/10/20 12:43:49;;;;;;;4.57;4.17;;;17.10;99.90;;;;;;6143298;23;20441;-77
2022/10/20 12:46:21;;;;;;;5.53;4.53;;;17.10;99.90;;;;;;6118594;23;20452;-77
2022/10/20 12:48:56;;;;;;;5.00;4.60;;;17.20;99.90;;;;;;6105086;23;20438;-77
2022/10/20 12:51:36;;;;;;;4.80;4.40;;;17.10;99.90;;;;;;6115924;23;20430;-77
2022/10/20 12:54:08;;;;;;;4.87;4.47;;;17.10;99.90;;;;;;6108193;23;20997;-77
2022/10/20 12:56:39;;;;;;;5.77;4.83;;;17.00;99.90;;;;;;6115273;23;20536;-77
2022/10/20 12:59:33;;;;;;;4.70;4.00;;;17.00;99.90;;;;;;6119003;23;20422;-77